createdAt,value
2018-06-28T00:00:00.953Z,3.30
2018-06-28T00:02:29.701Z,3.50
2018-06-28T00:04:58.088Z,3.40
2018-06-28T00:07:26.714Z,4.00
2018-06-28T00:09:55.552Z,3.40
2018-06-28T00:12:24.108Z,3.67
2018-06-28T00:14:52.736Z,3.50
2018-06-28T00:18:04.536Z,3.22
2018-06-28T00:20:33.094Z,3.63
2018-06-28T00:23:01.437Z,4.00
2018-06-28T00:25:30.292Z,3.40
2018-06-28T00:27:58.932Z,3.85
2018-06-28T00:30:27.816Z,2.50
2018-06-28T00:32:56.167Z,2.87
2018-06-28T00:35:24.501Z,3.57
2018-06-28T00:37:53.921Z,3.83
2018-06-28T00:40:22.239Z,3.67
2018-06-28T00:42:50.808Z,3.50
2018-06-28T00:45:19.393Z,3.93
2018-06-28T00:47:47.951Z,4.00
2018-06-28T00:50:16.521Z,4.12
2018-06-28T00:52:44.829Z,4.20
2018-06-28T00:55:13.437Z,4.17
2018-06-28T00:57:41.755Z,3.87
2018-06-28T01:00:10.113Z,4.07
2018-06-28T01:02:38.422Z,4.13
2018-06-28T01:05:06.745Z,3.40
2018-06-28T01:07:35.324Z,3.63
2018-06-28T01:10:03.935Z,4.22
2018-06-28T01:12:32.554Z,4.20
2018-06-28T01:15:01.120Z,3.85
2018-06-28T01:17:29.656Z,3.93
2018-06-28T01:19:58.320Z,4.47
2018-06-28T01:22:26.899Z,3.97
2018-06-28T01:24:55.210Z,4.00
2018-06-28T01:27:23.752Z,3.80
2018-06-28T01:29:52.047Z,4.10
2018-06-28T01:32:20.614Z,3.70
2018-06-28T01:34:49.120Z,4.12
2018-06-28T01:37:17.868Z,3.77
2018-06-28T01:39:46.169Z,4.00
2018-06-28T01:43:31.673Z,3.33
2018-06-28T01:46:00.141Z,3.90
2018-06-28T01:48:28.689Z,4.10
2018-06-28T01:50:57.301Z,2.90
2018-06-28T01:53:26.215Z,3.20
2018-06-28T01:55:54.525Z,4.20
2018-06-28T01:58:23.073Z,3.50
2018-06-28T02:00:51.438Z,4.03
2018-06-28T02:03:20.344Z,3.27
2018-06-28T02:05:50.516Z,3.45
2018-06-28T02:08:19.746Z,3.80
2018-06-28T02:10:48.455Z,3.37
2018-06-28T02:13:17.416Z,3.57
2018-06-28T02:15:45.712Z,3.60
2018-06-28T02:18:14.672Z,3.93
2018-06-28T02:20:42.974Z,3.67
2018-06-28T02:23:11.576Z,3.87
2018-06-28T02:25:40.590Z,3.83
2018-06-28T02:28:09.246Z,3.80
2018-06-28T02:30:37.589Z,4.00
2018-06-28T02:33:06.604Z,3.52
2018-06-28T02:35:34.895Z,4.33
2018-06-28T02:38:03.540Z,4.20
2018-06-28T02:40:32.356Z,3.97
2018-06-28T02:43:00.916Z,4.20
2018-06-28T02:45:29.576Z,4.50
2018-06-28T02:47:58.124Z,5.20
2018-06-28T02:50:26.796Z,5.07
2018-06-28T02:52:55.440Z,5.83
2018-06-28T02:55:23.732Z,5.50
2018-06-28T02:57:52.518Z,4.43
2018-06-28T03:00:21.153Z,5.33
2018-06-28T03:02:49.594Z,5.10
2018-06-28T03:05:17.995Z,5.73
2018-06-28T03:07:46.556Z,4.85
2018-06-28T03:10:15.088Z,5.97
2018-06-28T03:12:43.579Z,5.80
2018-06-28T03:15:11.916Z,5.67
2018-06-28T03:17:40.354Z,6.50
2018-06-28T03:20:09.035Z,6.20
2018-06-28T03:22:37.681Z,7.33
2018-06-28T03:25:06.589Z,6.22
2018-06-28T03:27:35.417Z,5.70
2018-06-28T03:30:04.204Z,6.50
2018-06-28T03:32:33.037Z,7.00
2018-06-28T03:35:01.577Z,7.03
2018-06-28T03:37:30.073Z,7.70
2018-06-28T03:39:58.629Z,7.75
2018-06-28T03:42:26.930Z,7.37
2018-06-28T03:44:55.460Z,6.70
2018-06-28T03:47:23.793Z,7.57
2018-06-28T03:49:52.354Z,7.33
2018-06-28T03:52:21.004Z,6.50
2018-06-28T03:54:49.285Z,6.97
2018-06-28T03:57:17.633Z,6.57
2018-06-28T03:59:46.076Z,6.70
2018-06-28T04:02:14.748Z,7.67
2018-06-28T04:04:43.712Z,8.37
2018-06-28T04:07:12.320Z,7.13
2018-06-28T04:09:40.901Z,7.10
2018-06-28T04:12:09.952Z,7.87
2018-06-28T04:14:38.776Z,7.83
2018-06-28T04:17:07.289Z,7.00
2018-06-28T04:19:35.739Z,6.80
2018-06-28T04:22:04.511Z,7.67
2018-06-28T04:24:32.839Z,7.23
2018-06-28T04:27:01.214Z,8.60
2018-06-28T04:29:29.783Z,7.17
2018-06-28T04:31:58.738Z,7.53
2018-06-28T04:34:27.516Z,6.78
2018-06-28T04:36:55.908Z,6.90
2018-06-28T04:39:24.428Z,7.20
2018-06-28T04:41:53.219Z,7.67
2018-06-28T04:44:22.094Z,6.73
2018-06-28T04:46:50.681Z,7.45
2018-06-28T04:49:19.300Z,8.43
2018-06-28T04:51:47.652Z,7.53
2018-06-28T04:54:16.608Z,7.83
2018-06-28T04:56:44.889Z,8.27
2018-06-28T04:59:13.704Z,8.30
2018-06-28T05:01:42.256Z,9.30
2018-06-28T05:04:10.553Z,8.00
2018-06-28T05:06:38.868Z,8.50
2018-06-28T05:09:08.006Z,7.90
2018-06-28T05:11:36.376Z,8.83
2018-06-28T05:14:05.864Z,9.40
2018-06-28T05:16:34.294Z,8.07
2018-06-28T05:19:03.040Z,10.30
2018-06-28T05:21:31.636Z,9.20
2018-06-28T05:24:00.108Z,8.50
2018-06-28T05:26:29.244Z,8.43
2018-06-28T05:28:57.566Z,9.70
2018-06-28T05:31:26.401Z,8.90
2018-06-28T05:33:54.705Z,8.60
2018-06-28T05:36:23.554Z,8.10
2018-06-28T05:38:51.855Z,8.30
2018-06-28T05:41:20.502Z,8.30
2018-06-28T05:43:48.821Z,8.27
2018-06-28T05:46:17.720Z,9.00
2018-06-28T05:48:46.019Z,8.83
2018-06-28T05:51:15.149Z,9.13
2018-06-28T05:53:43.495Z,8.40
2018-06-28T05:56:12.037Z,9.07
2018-06-28T05:58:40.545Z,9.27
2018-06-28T06:01:08.841Z,9.40
2018-06-28T06:03:37.258Z,9.50
2018-06-28T06:06:06.255Z,10.40
2018-06-28T06:08:34.577Z,10.93
2018-06-28T06:11:03.355Z,11.23
2018-06-28T06:13:31.691Z,11.40
2018-06-28T06:16:00.639Z,11.33
2018-06-28T06:18:28.961Z,10.60
2018-06-28T06:20:57.627Z,11.63
2018-06-28T06:23:26.297Z,10.83
2018-06-28T06:25:54.592Z,10.90
2018-06-28T06:28:23.126Z,9.90
2018-06-28T06:30:51.739Z,11.17
2018-06-28T06:33:20.032Z,9.90
2018-06-28T06:35:48.964Z,11.90
2018-06-28T06:38:17.880Z,11.73
2018-06-28T06:40:47.239Z,12.03
2018-06-28T06:43:15.928Z,12.47
2018-06-28T06:45:44.518Z,13.20
2018-06-28T06:48:13.180Z,12.80
2018-06-28T06:50:41.644Z,13.00
2018-06-28T06:53:10.276Z,13.53
2018-06-28T06:55:39.061Z,13.30
2018-06-28T06:58:07.728Z,13.00
2018-06-28T07:00:36.336Z,14.07
2018-06-28T07:03:05.143Z,13.70
2018-06-28T07:05:33.532Z,13.50
2018-06-28T07:08:02.415Z,13.37
2018-06-28T07:10:30.896Z,13.97
2018-06-28T07:12:59.723Z,13.07
2018-06-28T07:15:28.864Z,14.03
2018-06-28T07:17:57.193Z,14.27
2018-06-28T07:20:25.841Z,13.37
2018-06-28T07:22:54.550Z,12.47
2018-06-28T07:25:23.258Z,11.90
2018-06-28T07:27:51.643Z,12.60
2018-06-28T07:30:20.311Z,10.83
2018-06-28T07:32:48.613Z,12.00
2018-06-28T07:35:16.937Z,11.70
2018-06-28T07:37:45.629Z,11.67
2018-06-28T07:40:14.317Z,11.43
2018-06-28T07:42:42.719Z,11.43
2018-06-28T07:45:12.061Z,11.33
2018-06-28T07:47:40.657Z,13.18
2018-06-28T07:50:09.658Z,12.00
2018-06-28T07:52:38.117Z,12.57
2018-06-28T07:55:07.145Z,11.33
2018-06-28T07:57:36.053Z,11.93
2018-06-28T08:00:05.633Z,13.73
2018-06-28T08:02:34.078Z,13.57
2018-06-28T08:05:44.686Z,14.38
2018-06-28T08:08:13.282Z,12.23
2018-06-28T08:10:41.569Z,10.73
2018-06-28T08:13:10.368Z,11.17
2018-06-28T08:15:38.694Z,10.57
2018-06-28T08:18:07.158Z,11.37
2018-06-28T08:20:35.473Z,10.63
2018-06-28T08:23:03.876Z,11.60
2018-06-28T08:25:32.782Z,10.88
2018-06-28T08:28:01.088Z,11.30
2018-06-28T08:30:29.684Z,11.28
2018-06-28T08:32:59.134Z,11.40
2018-06-28T08:35:27.828Z,12.10
2018-06-28T08:37:56.164Z,10.23
2018-06-28T08:40:25.445Z,10.97
2018-06-28T08:42:54.398Z,10.70
2018-06-28T08:45:22.914Z,10.10
2018-06-28T08:47:51.545Z,10.78
2018-06-28T08:50:19.866Z,12.60
2018-06-28T08:52:48.165Z,10.47
2018-06-28T08:55:16.997Z,11.03
2018-06-28T08:57:45.421Z,12.20
2018-06-28T09:00:13.813Z,11.50
2018-06-28T09:02:42.141Z,11.90
2018-06-28T09:05:11.087Z,11.40
2018-06-28T09:07:39.385Z,11.23
2018-06-28T09:10:07.808Z,12.07
2018-06-28T09:12:39.682Z,12.03
2018-06-28T09:15:08.319Z,14.33
2018-06-28T09:17:37.079Z,14.00
2018-06-28T09:20:06.221Z,13.57
2018-06-28T09:22:35.074Z,16.32
2018-06-28T09:25:04.243Z,15.05
2018-06-28T09:27:33.014Z,13.53
2018-06-28T09:30:01.317Z,14.20
2018-06-28T09:32:29.911Z,13.20
2018-06-28T09:34:58.245Z,14.10
2018-06-28T09:37:27.153Z,14.43
2018-06-28T09:39:55.925Z,14.10
2018-06-28T09:42:24.509Z,15.50
2018-06-28T09:44:53.037Z,14.50
2018-06-28T09:47:21.376Z,14.23
2018-06-28T09:49:49.989Z,12.40
2018-06-28T09:52:18.641Z,14.67
2018-06-28T09:54:47.533Z,13.87
2018-06-28T09:57:16.043Z,12.30
2018-06-28T09:59:45.693Z,13.60
2018-06-28T10:02:14.001Z,14.37
2018-06-28T10:04:42.306Z,13.83
2018-06-28T10:07:10.945Z,13.53
2018-06-28T10:09:39.026Z,13.43
2018-06-28T10:12:07.617Z,14.03
2018-06-28T10:14:35.927Z,14.70
2018-06-28T10:17:04.448Z,15.03
2018-06-28T10:20:21.301Z,13.67
2018-06-28T10:22:49.902Z,15.38
2018-06-28T10:25:18.543Z,17.07
2018-06-28T10:27:47.299Z,14.80
2018-06-28T10:30:15.905Z,18.42
2018-06-28T10:32:44.590Z,14.40
2018-06-28T10:35:13.451Z,14.87
2018-06-28T10:37:41.750Z,15.43
2018-06-28T10:40:10.193Z,15.50
2018-06-28T10:42:38.829Z,16.65
2018-06-28T10:45:07.245Z,14.87
2018-06-28T10:47:35.581Z,15.57
2018-06-28T10:50:04.585Z,16.87
2018-06-28T10:52:32.929Z,14.57
2018-06-28T10:55:01.508Z,15.73
2018-06-28T10:57:30.100Z,15.30
2018-06-28T10:59:58.732Z,14.37
2018-06-28T11:02:27.032Z,14.53
2018-06-28T11:04:55.574Z,15.63
2018-06-28T11:07:23.896Z,14.17
2018-06-28T11:09:52.716Z,13.87
2018-06-28T11:12:21.308Z,12.98
2018-06-28T11:14:49.901Z,13.50
2018-06-28T11:17:18.483Z,13.60
2018-06-28T11:19:47.029Z,15.07
2018-06-28T11:22:15.636Z,15.90
2018-06-28T11:24:44.212Z,15.40
2018-06-28T11:27:12.798Z,14.43
2018-06-28T11:29:41.801Z,14.40
2018-06-28T11:32:10.144Z,14.33
2018-06-28T11:34:38.478Z,14.60
2018-06-28T11:37:07.656Z,12.90
2018-06-28T11:39:36.249Z,13.68
2018-06-28T11:42:04.609Z,13.97
2018-06-28T11:44:32.919Z,13.47
2018-06-28T11:47:01.219Z,15.20
2018-06-28T11:49:29.694Z,16.53
2018-06-28T11:51:58.063Z,16.83
2018-06-28T11:54:27.241Z,19.53
2018-06-28T11:56:55.572Z,17.77
2018-06-28T11:59:24.032Z,17.60
2018-06-28T12:01:52.790Z,19.67
2018-06-28T12:04:21.964Z,16.70
2018-06-28T12:06:50.334Z,15.50
2018-06-28T12:09:19.464Z,16.37
2018-06-28T12:11:48.120Z,18.27
2018-06-28T12:14:16.696Z,17.95
2018-06-28T12:16:45.014Z,17.70
2018-06-28T12:19:13.312Z,17.83
2018-06-28T12:21:41.941Z,19.27
2018-06-28T12:24:10.523Z,20.77
2018-06-28T12:26:38.840Z,19.53
2018-06-28T12:29:07.947Z,22.10
2018-06-28T12:31:36.708Z,20.65
2018-06-28T12:34:05.427Z,22.30
2018-06-28T12:36:34.452Z,21.33
2018-06-28T12:39:03.195Z,23.27
2018-06-28T12:41:32.019Z,20.70
2018-06-28T12:44:01.430Z,20.62
2018-06-28T12:46:41.503Z,20.72
2018-06-28T12:49:10.080Z,21.07
2018-06-28T12:52:44.593Z,22.30
2018-06-28T12:55:14.667Z,21.27
2018-06-28T12:57:43.991Z,23.30
2018-06-28T13:00:13.217Z,22.32
2018-06-28T13:02:41.895Z,27.07
2018-06-28T13:05:10.370Z,24.93
2018-06-28T13:07:38.855Z,26.03
2018-06-28T13:10:08.699Z,28.10
2018-06-28T13:12:37.629Z,26.80
2018-06-28T13:15:06.871Z,26.60
2018-06-28T13:17:35.523Z,25.77
2018-06-28T13:20:04.624Z,27.70
2018-06-28T13:22:33.026Z,26.17
2018-06-28T13:25:02.650Z,28.20
2018-06-28T13:27:31.045Z,27.23
2018-06-28T13:29:59.375Z,30.47
2018-06-28T13:32:28.103Z,27.40
2018-06-28T13:34:56.682Z,29.20
2018-06-28T13:37:24.983Z,29.50
2018-06-28T13:39:53.561Z,28.97
2018-06-28T13:42:22.574Z,28.50
2018-06-28T13:44:51.351Z,29.77
2018-06-28T13:47:19.945Z,26.87
2018-06-28T13:49:48.874Z,27.10
2018-06-28T13:52:17.393Z,25.07
2018-06-28T13:54:46.084Z,26.27
2018-06-28T13:57:14.980Z,26.90
2018-06-28T13:59:43.612Z,26.13
2018-06-28T14:02:12.444Z,24.35
2018-06-28T14:04:41.036Z,23.60
2018-06-28T14:07:09.624Z,23.77
2018-06-28T14:09:38.190Z,26.02
2018-06-28T14:12:06.506Z,23.90
2018-06-28T14:14:34.899Z,23.97
2018-06-28T14:17:03.551Z,28.03
2018-06-28T14:19:31.867Z,28.30
2018-06-28T14:22:00.461Z,27.27
2018-06-28T14:24:29.308Z,26.52
2018-06-28T14:26:57.808Z,25.53
2018-06-28T14:29:26.135Z,25.70
2018-06-28T14:31:55.047Z,25.20
2018-06-28T14:34:23.975Z,24.93
2018-06-28T14:36:52.553Z,25.37
2018-06-28T14:39:21.072Z,23.10
2018-06-28T14:41:50.073Z,25.43
2018-06-28T14:44:18.864Z,24.27
2018-06-28T14:46:47.476Z,25.43
2018-06-28T14:49:16.118Z,25.73
2018-06-28T14:51:44.449Z,25.53
2018-06-28T14:54:13.049Z,23.15
2018-06-28T14:56:41.853Z,22.63
2018-06-28T14:59:10.574Z,21.93
2018-06-28T15:01:39.219Z,18.70
2018-06-28T15:04:07.802Z,18.00
2018-06-28T15:06:36.493Z,15.88
2018-06-28T15:09:08.579Z,15.70
2018-06-28T15:11:37.259Z,14.47
2018-06-28T15:14:06.376Z,15.37
2018-06-28T15:16:34.968Z,16.87
2018-06-28T15:19:03.595Z,15.53
2018-06-28T15:21:32.205Z,16.48
2018-06-28T15:24:00.761Z,16.40
2018-06-28T15:26:29.375Z,15.90
2018-06-28T15:28:58.001Z,15.60
2018-06-28T15:31:26.377Z,14.97
2018-06-28T15:33:54.670Z,13.77
2018-06-28T15:36:23.520Z,13.75
2018-06-28T15:38:52.420Z,14.43
2018-06-28T15:41:21.084Z,13.80
2018-06-28T15:43:50.049Z,15.05
2018-06-28T15:46:18.576Z,14.10
2018-06-28T15:48:46.968Z,14.90
2018-06-28T15:51:15.612Z,14.50
2018-06-28T15:53:44.288Z,15.13
2018-06-28T15:56:12.624Z,13.93
2018-06-28T15:58:41.208Z,15.07
2018-06-28T16:01:09.883Z,13.93
2018-06-28T16:03:38.775Z,14.28
2018-06-28T16:06:07.423Z,13.32
2018-06-28T16:08:36.059Z,15.40
2018-06-28T16:11:05.018Z,14.87
2018-06-28T16:13:33.761Z,14.33
2018-06-28T16:16:02.685Z,14.83
2018-06-28T16:18:31.293Z,13.80
2018-06-28T16:20:59.595Z,13.60
2018-06-28T16:23:28.505Z,13.67
2018-06-28T16:25:57.665Z,14.40
2018-06-28T16:28:26.288Z,13.10
2018-06-28T16:30:54.819Z,13.47
2018-06-28T16:33:23.467Z,14.75
2018-06-28T16:35:52.045Z,13.25
2018-06-28T16:38:20.596Z,14.90
2018-06-28T16:40:49.076Z,14.50
2018-06-28T16:43:18.771Z,13.93
2018-06-28T16:45:47.090Z,14.30
2018-06-28T16:48:15.897Z,13.23
2018-06-28T16:50:44.375Z,15.27
2018-06-28T16:53:12.679Z,15.00
2018-06-28T16:55:41.627Z,15.10
2018-06-28T16:58:10.869Z,14.70
2018-06-28T17:00:40.038Z,15.17
2018-06-28T17:03:11.004Z,13.97
2018-06-28T17:05:39.333Z,15.20
2018-06-28T17:08:08.248Z,14.47
2018-06-28T17:10:36.899Z,16.00
2018-06-28T17:13:05.783Z,16.00
2018-06-28T17:15:34.241Z,17.00
2018-06-28T17:18:03.181Z,15.03
2018-06-28T17:20:32.350Z,16.10
2018-06-28T17:23:00.979Z,15.23
2018-06-28T17:25:29.523Z,15.77
2018-06-28T17:27:58.373Z,15.50
2018-06-28T17:30:26.677Z,16.83
2018-06-28T17:32:55.032Z,16.00
2018-06-28T17:35:23.837Z,15.57
2018-06-28T17:37:52.544Z,15.17
2018-06-28T17:40:21.353Z,14.27
2018-06-28T17:42:50.756Z,15.60
2018-06-28T17:45:19.199Z,15.67
2018-06-28T17:47:47.853Z,15.60
2018-06-28T17:50:16.427Z,14.73
2018-06-28T17:52:44.784Z,13.87
2018-06-28T17:55:13.377Z,14.35
2018-06-28T17:57:41.754Z,15.50
2018-06-28T18:00:10.089Z,13.93
2018-06-28T18:02:38.480Z,13.60
2018-06-28T18:05:07.396Z,13.63
2018-06-28T18:07:36.052Z,15.67
2018-06-28T18:10:04.988Z,14.13
2018-06-28T18:12:33.628Z,15.78
2018-06-28T18:15:01.950Z,14.60
2018-06-28T18:17:30.739Z,14.70
2018-06-28T18:19:59.280Z,15.20
2018-06-28T18:22:27.905Z,15.33
2018-06-28T18:24:56.582Z,15.43
2018-06-28T18:27:24.959Z,14.70
2018-06-28T18:29:53.317Z,15.20
2018-06-28T18:32:22.143Z,14.97
2018-06-28T18:34:50.673Z,14.80
2018-06-28T18:37:19.265Z,14.68
2018-06-28T18:39:47.867Z,16.15
2018-06-28T18:42:16.452Z,14.73
2018-06-28T18:44:45.085Z,13.57
2018-06-28T18:47:13.845Z,15.53
2018-06-28T18:49:42.372Z,16.00
2018-06-28T18:52:11.324Z,14.70
2018-06-28T18:54:39.704Z,14.47
2018-06-28T18:57:08.048Z,14.57
2018-06-28T18:59:36.982Z,15.03
2018-06-28T19:02:05.531Z,14.43
2018-06-28T19:04:34.299Z,14.40
2018-06-28T19:07:02.892Z,14.28
2018-06-28T19:09:36.730Z,13.83
2018-06-28T19:12:05.815Z,15.48
2018-06-28T19:14:40.155Z,15.50
2018-06-28T19:17:08.916Z,16.45
2018-06-28T19:19:37.253Z,14.73
2018-06-28T19:22:12.004Z,15.58
2018-06-28T19:24:40.296Z,16.00
2018-06-28T19:27:08.666Z,16.13
2018-06-28T19:29:42.938Z,16.20
2018-06-28T19:32:17.030Z,17.23
2018-06-28T19:34:45.427Z,15.87
2018-06-28T19:37:19.336Z,17.50
2018-06-28T19:39:53.233Z,17.10
2018-06-28T19:42:27.364Z,18.60
2018-06-28T19:44:55.736Z,17.57
2018-06-28T19:47:24.308Z,18.33
2018-06-28T19:49:57.876Z,17.70
2018-06-28T19:53:31.670Z,17.70
2018-06-28T19:56:00.340Z,17.77
2018-06-28T19:58:28.688Z,17.57
2018-06-28T20:01:02.386Z,19.00
2018-06-28T20:03:35.831Z,18.87
2018-06-28T20:06:04.151Z,17.83
2018-06-28T20:08:32.625Z,19.87
2018-06-28T20:11:00.939Z,19.30
2018-06-28T20:13:35.260Z,19.00
2018-06-28T20:16:09.512Z,16.93
2018-06-28T20:18:43.819Z,18.97
2018-06-28T20:21:12.515Z,18.67
2018-06-28T20:23:41.544Z,18.30
2018-06-28T20:26:15.185Z,18.77
2018-06-28T20:28:49.461Z,18.70
2018-06-28T20:31:23.841Z,20.10
2018-06-28T20:33:57.865Z,19.80
2018-06-28T20:36:26.608Z,19.50
2018-06-28T20:38:55.524Z,19.95
2018-06-28T20:41:23.946Z,20.07
2018-06-28T20:43:52.252Z,19.80
2018-06-28T20:46:20.550Z,20.60
2018-06-28T20:48:48.884Z,20.90
2018-06-28T20:51:18.944Z,21.50
2018-06-28T20:53:47.372Z,21.07
2018-06-28T20:56:15.976Z,21.87
2018-06-28T20:58:45.916Z,21.47
2018-06-28T21:01:14.632Z,22.33
2018-06-28T21:03:43.354Z,21.73
2018-06-28T21:06:12.236Z,21.60
2018-06-28T21:08:40.828Z,22.03
2018-06-28T21:11:09.177Z,22.47
2018-06-28T21:13:38.508Z,21.00
2018-06-28T21:16:06.860Z,22.73
2018-06-28T21:18:35.524Z,22.60
2018-06-28T21:21:03.855Z,23.47
2018-06-28T21:23:32.525Z,22.67
2018-06-28T21:26:01.367Z,22.93
2018-06-28T21:28:29.998Z,24.20
2018-06-28T21:30:58.352Z,24.60
2018-06-28T21:33:27.008Z,24.40
2018-06-28T21:35:56.297Z,24.90
2018-06-28T21:38:24.603Z,23.30
2018-06-28T21:40:53.209Z,25.17
2018-06-28T21:43:21.531Z,26.30
2018-06-28T21:45:49.869Z,26.17
2018-06-28T21:48:18.234Z,25.00
2018-06-28T21:50:46.963Z,23.35
2018-06-28T21:53:15.358Z,25.00
2018-06-28T21:55:44.367Z,23.87
2018-06-28T21:58:13.144Z,26.75
2018-06-28T22:00:42.202Z,27.33
2018-06-28T22:03:10.888Z,25.93
2018-06-28T22:05:39.497Z,26.00
2018-06-28T22:08:08.156Z,25.53
2018-06-28T22:10:36.980Z,25.43
2018-06-28T22:13:05.424Z,24.97
2018-06-28T22:15:33.798Z,26.40
2018-06-28T22:18:03.917Z,26.53
2018-06-28T22:20:33.124Z,26.87
2018-06-28T22:23:02.064Z,26.35
2018-06-28T22:25:31.051Z,27.70
2018-06-28T22:27:59.364Z,28.97
2018-06-28T22:30:28.012Z,28.43
2018-06-28T22:32:56.420Z,26.67
2018-06-28T22:35:24.900Z,31.00
2018-06-28T22:37:53.283Z,27.57
2018-06-28T22:40:22.253Z,30.90
2018-06-28T22:42:50.611Z,28.67
2018-06-28T22:45:19.327Z,28.83
2018-06-28T22:47:47.825Z,28.60
2018-06-28T22:50:16.477Z,26.97
2018-06-28T22:52:44.785Z,26.67
2018-06-28T22:55:13.143Z,29.15
2018-06-28T22:57:41.469Z,28.00
2018-06-28T23:00:10.060Z,31.37
2018-06-28T23:02:38.997Z,30.17
2018-06-28T23:05:07.808Z,31.20
2018-06-28T23:07:36.985Z,32.00
2018-06-28T23:10:05.958Z,31.87
2018-06-28T23:12:34.248Z,30.90
2018-06-28T23:15:02.637Z,31.97
2018-06-28T23:17:31.227Z,32.00
2018-06-28T23:19:59.683Z,32.47
2018-06-28T23:22:40.394Z,28.67
2018-06-28T23:25:09.009Z,31.90
2018-06-28T23:27:37.428Z,32.87
2018-06-28T23:30:06.195Z,32.10
2018-06-28T23:32:34.833Z,31.23
2018-06-28T23:35:45.917Z,32.13
2018-06-28T23:38:17.131Z,32.67
2018-06-28T23:40:45.602Z,31.97
2018-06-28T23:43:13.907Z,31.40
2018-06-28T23:45:42.553Z,31.40
2018-06-28T23:48:10.981Z,33.67
2018-06-28T23:50:39.606Z,31.47
2018-06-28T23:53:08.290Z,33.90
2018-06-28T23:55:36.698Z,32.90
2018-06-28T23:58:05.037Z,31.57
